createdAt,value
2019-04-01T00:01:57.409Z,53.20
2019-04-01T00:12:01.305Z,58.40
2019-04-01T00:17:03.630Z,60.93
2019-04-01T00:22:06.341Z,56.60
2019-04-01T00:27:08.644Z,61.60
2019-04-01T00:32:11.737Z,60.53
2019-04-01T00:37:14.033Z,61.33
2019-04-01T00:42:17.960Z,62.10
2019-04-01T00:47:20.260Z,58.60
2019-04-01T00:52:22.584Z,65.80
2019-04-01T00:57:24.853Z,59.67
2019-04-01T01:02:27.204Z,61.07
2019-04-01T01:07:29.515Z,66.33
2019-04-01T01:12:31.799Z,60.67
2019-04-01T01:17:34.075Z,60.55
2019-04-01T01:22:36.363Z,62.13
2019-04-01T01:27:38.809Z,64.13
2019-04-01T01:32:41.159Z,63.70
2019-04-01T01:37:43.448Z,62.33
2019-04-01T01:42:45.805Z,64.20
2019-04-01T01:47:48.295Z,59.23
2019-04-01T01:52:50.553Z,62.00
2019-04-01T01:57:52.821Z,64.90
2019-04-01T02:02:55.110Z,64.30
2019-04-01T02:07:57.369Z,60.40
2019-04-01T02:12:59.659Z,64.23
2019-04-01T02:18:01.948Z,60.50
2019-04-01T02:23:04.311Z,64.15
2019-04-01T02:28:06.595Z,63.63
2019-04-01T02:33:09.413Z,65.97
2019-04-01T02:38:11.694Z,65.90
2019-04-01T02:43:13.996Z,64.13
2019-04-01T02:48:16.339Z,65.17
2019-04-01T02:53:18.611Z,65.63
2019-04-01T02:58:20.916Z,63.10
2019-04-01T03:03:23.276Z,67.90
2019-04-01T03:08:25.544Z,61.87
2019-04-01T03:13:27.814Z,66.20
2019-04-01T03:18:30.123Z,64.20
2019-04-01T03:23:32.415Z,65.63
2019-04-01T03:28:44.140Z,63.27
2019-04-01T03:33:46.434Z,67.60
2019-04-01T03:38:48.718Z,63.67
2019-04-01T03:43:51.044Z,66.70
2019-04-01T03:48:53.345Z,65.77
2019-04-01T03:53:56.632Z,68.50
2019-04-01T03:58:58.949Z,67.97
2019-04-01T04:04:01.425Z,68.03
2019-04-01T04:09:05.450Z,65.77
2019-04-01T04:14:07.792Z,67.07
2019-04-01T04:19:10.114Z,64.37
2019-04-01T04:24:12.430Z,63.67
2019-04-01T04:29:14.736Z,70.43
2019-04-01T04:34:17.694Z,70.27
2019-04-01T04:39:19.979Z,63.93
2019-04-01T04:44:22.306Z,67.57
2019-04-01T04:49:24.614Z,58.23
2019-04-01T04:54:26.977Z,57.83
2019-04-01T04:59:29.258Z,56.70
2019-04-01T05:04:31.625Z,58.27
2019-04-01T05:09:33.904Z,61.25
2019-04-01T05:14:36.204Z,60.87
2019-04-01T05:19:38.909Z,61.47
2019-04-01T05:24:41.295Z,72.43
2019-04-01T05:29:44.507Z,56.07
2019-04-01T05:34:48.329Z,63.10
2019-04-01T05:39:50.595Z,60.47
2019-04-01T05:44:52.883Z,59.55
2019-04-01T05:49:55.314Z,64.10
2019-04-01T05:54:57.874Z,61.80
2019-04-01T06:00:00.932Z,59.90
2019-04-01T06:05:04.220Z,58.10
2019-04-01T06:10:07.082Z,59.07
2019-04-01T06:15:09.507Z,60.17
2019-04-01T06:20:11.913Z,59.97
2019-04-01T06:25:14.505Z,59.43
2019-04-01T06:30:17.113Z,60.80
2019-04-01T06:35:19.420Z,63.73
2019-04-01T06:40:21.753Z,57.67
2019-04-01T06:45:24.105Z,61.27
2019-04-01T06:50:26.349Z,60.67
2019-04-01T06:55:28.687Z,61.27
2019-04-01T07:00:30.979Z,57.00
2019-04-01T07:05:33.331Z,57.43
2019-04-01T07:10:35.683Z,63.13
2019-04-01T07:15:38.038Z,55.33
2019-04-01T07:20:40.655Z,53.90
2019-04-01T07:25:43.011Z,54.97
2019-04-01T07:30:45.280Z,55.20
2019-04-01T07:35:47.768Z,51.25
2019-04-01T07:40:50.124Z,50.67
2019-04-01T07:45:52.420Z,48.73
2019-04-01T07:50:54.736Z,51.58
2019-04-01T07:55:57.142Z,47.55
2019-04-01T08:00:59.498Z,47.65
2019-04-01T08:06:01.963Z,47.37
2019-04-01T08:11:04.417Z,52.15
2019-04-01T08:16:06.783Z,48.60
2019-04-01T08:21:09.116Z,53.92
2019-04-01T08:26:11.477Z,50.90
2019-04-01T08:31:14.186Z,49.63
2019-04-01T08:36:16.478Z,47.08
2019-04-01T08:41:18.971Z,43.33
2019-04-01T08:46:21.298Z,48.75
2019-04-01T08:51:23.672Z,48.40
2019-04-01T08:56:26.059Z,48.92
2019-04-01T09:01:35.112Z,47.30
2019-04-01T09:06:32.391Z,45.95
2019-04-01T09:11:38.244Z,45.52
2019-04-01T09:16:39.402Z,45.98
2019-04-01T09:21:41.743Z,50.83
2019-04-01T09:26:44.043Z,51.90
2019-04-01T09:31:46.314Z,45.92
2019-04-01T09:36:48.604Z,49.40
2019-04-01T09:41:50.892Z,44.10
2019-04-01T09:46:53.188Z,44.42
2019-04-01T09:51:55.609Z,48.02
2019-04-01T09:56:57.964Z,44.18
2019-04-01T10:02:00.243Z,49.67
2019-04-01T10:07:02.504Z,46.48
2019-04-01T10:12:04.790Z,46.50
2019-04-01T10:17:07.127Z,48.78
2019-04-01T10:22:09.417Z,52.33
2019-04-01T10:27:11.711Z,47.85
2019-04-01T10:32:14.025Z,50.98
2019-04-01T10:37:16.330Z,51.77
2019-04-01T10:42:18.729Z,46.88
2019-04-01T10:47:21.349Z,50.88
2019-04-01T10:52:23.743Z,44.48
2019-04-01T10:57:26.135Z,43.38
2019-04-01T11:02:29.004Z,42.53
2019-04-01T11:07:31.395Z,49.73
2019-04-01T11:12:33.749Z,45.43
2019-04-01T11:17:36.115Z,41.02
2019-04-01T11:22:38.433Z,43.13
2019-04-01T11:27:40.817Z,44.23
2019-04-01T11:32:43.175Z,44.45
2019-04-01T11:37:45.493Z,43.13
2019-04-01T11:42:47.830Z,43.95
2019-04-01T11:47:50.176Z,42.58
2019-04-01T11:52:52.483Z,39.38
2019-04-01T11:57:54.905Z,26.90
2019-04-01T12:02:57.173Z,43.42
2019-04-01T12:07:59.538Z,42.65
2019-04-01T12:13:02.212Z,40.58
2019-04-01T12:18:04.571Z,44.40
2019-04-01T12:23:06.934Z,41.10
2019-04-01T12:28:09.378Z,38.78
2019-04-01T12:33:11.734Z,38.90
2019-04-01T12:38:14.019Z,37.93
2019-04-01T12:43:16.288Z,38.33
2019-04-01T12:48:18.658Z,36.57
2019-04-01T12:53:21.257Z,39.88
2019-04-01T12:58:25.309Z,33.73
2019-04-01T13:03:27.995Z,37.40
2019-04-01T13:08:30.327Z,37.30
2019-04-01T13:13:32.985Z,35.20
2019-04-01T13:18:38.053Z,35.43
2019-04-01T13:23:39.358Z,32.93
2019-04-01T13:28:42.475Z,31.12
2019-04-01T13:33:44.978Z,36.38
2019-04-01T13:38:47.549Z,32.28
2019-04-01T13:43:49.935Z,33.97
2019-04-01T13:48:57.976Z,36.88
2019-04-01T13:54:07.979Z,37.30
2019-04-01T13:59:00.323Z,31.30
2019-04-01T14:04:02.626Z,34.23
2019-04-01T14:09:06.004Z,36.00
2019-04-01T14:14:08.299Z,32.98
2019-04-01T14:19:10.587Z,33.65
2019-04-01T14:24:13.268Z,32.28
2019-04-01T14:29:16.661Z,39.55
2019-04-01T14:34:23.323Z,33.78
2019-04-01T14:39:23.668Z,49.18
2019-04-01T14:44:26.016Z,38.23
2019-04-01T14:49:28.397Z,37.65
2019-04-01T14:54:31.293Z,34.35
2019-04-01T14:59:33.704Z,30.00
2019-04-01T15:04:36.304Z,30.65
2019-04-01T15:09:38.646Z,33.18
2019-04-01T15:14:40.996Z,32.73
2019-04-01T15:19:43.401Z,28.07
2019-04-01T15:24:45.779Z,30.45
2019-04-01T15:29:48.055Z,26.23
2019-04-01T15:34:50.332Z,28.73
2019-04-01T15:39:52.634Z,30.75
2019-04-01T15:44:55.007Z,32.05
2019-04-01T15:49:57.639Z,29.23
2019-04-01T15:54:59.918Z,29.50
2019-04-01T16:00:03.282Z,28.47
2019-04-01T16:05:06.573Z,30.05
2019-04-01T16:10:08.924Z,29.60
2019-04-01T16:15:11.410Z,31.48
2019-04-01T16:20:13.832Z,31.45
2019-04-01T16:25:16.288Z,30.25
2019-04-01T16:30:18.630Z,26.02
2019-04-01T16:35:21.054Z,23.95
2019-04-01T16:40:23.537Z,28.62
2019-04-01T16:45:25.845Z,25.23
2019-04-01T16:50:28.704Z,24.00
2019-04-01T16:55:31.123Z,28.55
2019-04-01T17:00:33.547Z,25.43
2019-04-01T17:05:36.078Z,29.87
2019-04-01T17:10:38.543Z,26.07
2019-04-01T17:15:40.962Z,24.57
2019-04-01T17:20:43.330Z,31.85
2019-04-01T17:25:45.697Z,22.87
2019-04-01T17:30:48.069Z,25.60
2019-04-01T17:35:50.460Z,23.25
2019-04-01T17:40:52.881Z,32.80
2019-04-01T17:45:55.231Z,29.87
2019-04-01T17:50:58.108Z,28.90
2019-04-01T17:56:00.881Z,29.57
2019-04-01T18:01:03.286Z,29.30
2019-04-01T18:06:05.570Z,26.37
2019-04-01T18:11:07.847Z,28.10
2019-04-01T18:16:10.138Z,25.60
2019-04-01T18:21:12.500Z,24.43
2019-04-01T18:26:14.826Z,28.00
2019-04-01T18:31:17.480Z,30.15
2019-04-01T18:36:19.870Z,31.37
2019-04-01T18:41:22.267Z,32.05
2019-04-01T18:46:24.658Z,34.53
2019-04-01T18:51:27.094Z,38.20
2019-04-01T18:56:29.492Z,37.73
2019-04-01T19:01:31.871Z,31.62
2019-04-01T19:06:35.186Z,32.53
2019-04-01T19:11:38.596Z,32.63
2019-04-01T19:16:40.941Z,28.57
2019-04-01T19:21:43.465Z,36.35
2019-04-01T19:26:45.854Z,32.60
2019-04-01T19:31:51.087Z,28.73
2019-04-01T19:36:52.613Z,24.77
2019-04-01T19:41:54.890Z,22.48
2019-04-01T19:46:57.369Z,22.20
2019-04-01T19:51:59.892Z,21.90
2019-04-01T19:57:02.455Z,21.85
2019-04-01T20:02:04.829Z,27.63
2019-04-01T20:07:07.143Z,34.37
2019-04-01T20:12:09.972Z,38.45
2019-04-01T20:17:12.351Z,31.63
2019-04-01T20:22:14.645Z,29.07
2019-04-01T20:27:17.037Z,36.93
2019-04-01T20:32:20.154Z,30.40
2019-04-01T20:37:23.134Z,37.37
2019-04-01T20:42:26.593Z,44.13
2019-04-01T20:47:29.085Z,47.00
2019-04-01T20:52:31.424Z,35.67
2019-04-01T20:57:34.093Z,43.47
2019-04-01T21:02:36.636Z,40.07
2019-04-01T21:07:39.053Z,32.93
2019-04-01T21:12:42.426Z,33.80
2019-04-01T21:17:44.792Z,32.00
2019-04-01T21:22:47.184Z,32.70
2019-04-01T21:27:49.474Z,34.00
2019-04-01T21:32:51.884Z,30.00
2019-04-01T21:37:54.194Z,31.77
2019-04-01T21:42:56.537Z,33.67
2019-04-01T21:47:58.825Z,33.07
2019-04-01T21:53:01.227Z,33.00
2019-04-01T21:58:04.563Z,35.50
2019-04-01T22:03:06.918Z,38.33
2019-04-01T22:08:09.307Z,33.67
2019-04-01T22:13:11.567Z,35.40
2019-04-01T22:18:14.312Z,35.27
2019-04-01T22:23:17.016Z,31.70
2019-04-01T22:28:19.282Z,37.10
2019-04-01T22:33:21.577Z,35.67
2019-04-01T22:38:25.344Z,48.77
2019-04-01T22:43:27.890Z,35.50
2019-04-01T22:48:30.167Z,31.17
2019-04-01T22:53:33.290Z,39.23
2019-04-01T22:58:35.912Z,43.73
2019-04-01T23:03:39.225Z,31.33
2019-04-01T23:08:42.223Z,34.00
2019-04-01T23:13:44.498Z,30.97
2019-04-01T23:18:46.884Z,34.90
2019-04-01T23:23:49.195Z,31.30
2019-04-01T23:28:53.152Z,30.57
2019-04-01T23:33:55.697Z,35.03
2019-04-01T23:38:57.983Z,36.70
2019-04-01T23:44:00.251Z,33.67
2019-04-01T23:49:02.619Z,38.20
2019-04-01T23:54:04.977Z,33.57
2019-04-01T23:59:07.269Z,31.47
